sensor_id;sensor_type;location;lat;lon;timestamp;P1;durP1;ratioP1;P2;durP2;ratioP2
59976;SDS011;45837;51.076;3.578;2022-08-19T00:01:37;22.85;;;16.70;;
59976;SDS011;45837;51.076;3.578;2022-08-19T00:04:06;23.33;;;15.80;;
59976;SDS011;45837;51.076;3.578;2022-08-19T00:06:34;23.58;;;16.38;;
59976;SDS011;45837;51.076;3.578;2022-08-19T00:09:02;21.70;;;15.88;;
59976;SDS011;45837;51.076;3.578;2022-08-19T00:11:30;22.48;;;14.82;;
59976;SDS011;45837;51.076;3.578;2022-08-19T00:13:56;21.17;;;14.63;;
59976;SDS011;45837;51.076;3.578;2022-08-19T00:16:23;22.60;;;15.10;;
59976;SDS011;45837;51.076;3.578;2022-08-19T00:18:50;17.35;;;13.57;;
59976;SDS011;45837;51.076;3.578;2022-08-19T00:21:18;17.45;;;13.23;;
59976;SDS011;45837;51.076;3.578;2022-08-19T00:23:46;19.15;;;13.15;;
59976;SDS011;45837;51.076;3.578;2022-08-19T00:26:14;21.80;;;13.15;;
59976;SDS011;45837;51.076;3.578;2022-08-19T00:28:41;19.48;;;13.65;;
59976;SDS011;45837;51.076;3.578;2022-08-19T00:31:07;18.88;;;14.07;;
59976;SDS011;45837;51.076;3.578;2022-08-19T00:33:33;17.25;;;12.07;;
59976;SDS011;45837;51.076;3.578;2022-08-19T00:36:00;18.83;;;13.68;;
59976;SDS011;45837;51.076;3.578;2022-08-19T00:38:30;18.60;;;13.55;;
59976;SDS011;45837;51.076;3.578;2022-08-19T00:40:56;19.77;;;13.60;;
59976;SDS011;45837;51.076;3.578;2022-08-19T00:43:23;20.00;;;12.48;;
59976;SDS011;45837;51.076;3.578;2022-08-19T00:45:52;17.60;;;12.60;;
59976;SDS011;45837;51.076;3.578;2022-08-19T00:48:18;19.80;;;14.35;;
59976;SDS011;45837;51.076;3.578;2022-08-19T00:50:45;17.55;;;13.70;;
59976;SDS011;45837;51.076;3.578;2022-08-19T00:53:14;18.60;;;14.25;;
59976;SDS011;45837;51.076;3.578;2022-08-19T00:55:45;20.42;;;13.30;;
59976;SDS011;45837;51.076;3.578;2022-08-19T00:58:14;18.00;;;13.90;;
59976;SDS011;45837;51.076;3.578;2022-08-19T01:00:47;20.33;;;13.63;;
59976;SDS011;45837;51.076;3.578;2022-08-19T01:03:15;18.63;;;13.70;;
59976;SDS011;45837;51.076;3.578;2022-08-19T01:05:45;18.20;;;12.85;;
59976;SDS011;45837;51.076;3.578;2022-08-19T01:08:15;17.05;;;13.23;;
59976;SDS011;45837;51.076;3.578;2022-08-19T01:10:47;20.17;;;14.07;;
59976;SDS011;45837;51.076;3.578;2022-08-19T01:13:15;21.25;;;14.07;;
59976;SDS011;45837;51.076;3.578;2022-08-19T01:15:45;18.88;;;14.13;;
59976;SDS011;45837;51.076;3.578;2022-08-19T01:18:19;17.10;;;12.40;;
59976;SDS011;45837;51.076;3.578;2022-08-19T01:20:45;16.77;;;11.50;;
59976;SDS011;45837;51.076;3.578;2022-08-19T01:23:12;20.33;;;13.50;;
59976;SDS011;45837;51.076;3.578;2022-08-19T01:25:48;21.08;;;13.70;;
59976;SDS011;45837;51.076;3.578;2022-08-19T01:28:18;17.10;;;13.05;;
59976;SDS011;45837;51.076;3.578;2022-08-19T01:30:51;18.05;;;13.00;;
59976;SDS011;45837;51.076;3.578;2022-08-19T01:33:20;17.23;;;12.27;;
59976;SDS011;45837;51.076;3.578;2022-08-19T01:35:46;20.30;;;13.60;;
59976;SDS011;45837;51.076;3.578;2022-08-19T01:38:25;19.92;;;14.25;;
59976;SDS011;45837;51.076;3.578;2022-08-19T01:40:52;19.00;;;13.43;;
59976;SDS011;45837;51.076;3.578;2022-08-19T01:43:18;17.48;;;12.75;;
59976;SDS011;45837;51.076;3.578;2022-08-19T01:45:44;16.83;;;12.80;;
59976;SDS011;45837;51.076;3.578;2022-08-19T01:48:11;21.58;;;13.15;;
59976;SDS011;45837;51.076;3.578;2022-08-19T01:50:37;23.92;;;13.52;;
59976;SDS011;45837;51.076;3.578;2022-08-19T01:53:05;18.10;;;12.27;;
59976;SDS011;45837;51.076;3.578;2022-08-19T01:55:33;19.70;;;13.05;;
59976;SDS011;45837;51.076;3.578;2022-08-19T01:58:02;21.30;;;13.25;;
59976;SDS011;45837;51.076;3.578;2022-08-19T02:00:30;21.88;;;12.60;;
59976;SDS011;45837;51.076;3.578;2022-08-19T02:02:57;19.23;;;12.80;;
59976;SDS011;45837;51.076;3.578;2022-08-19T02:05:23;21.08;;;12.93;;
59976;SDS011;45837;51.076;3.578;2022-08-19T02:07:52;20.15;;;12.82;;
59976;SDS011;45837;51.076;3.578;2022-08-19T02:10:21;19.80;;;12.80;;
59976;SDS011;45837;51.076;3.578;2022-08-19T02:12:47;16.13;;;12.13;;
59976;SDS011;45837;51.076;3.578;2022-08-19T02:15:17;18.65;;;12.80;;
59976;SDS011;45837;51.076;3.578;2022-08-19T02:17:44;21.60;;;13.15;;
59976;SDS011;45837;51.076;3.578;2022-08-19T02:20:11;15.13;;;11.95;;
59976;SDS011;45837;51.076;3.578;2022-08-19T02:22:38;21.35;;;12.52;;
59976;SDS011;45837;51.076;3.578;2022-08-19T02:25:07;21.65;;;12.80;;
59976;SDS011;45837;51.076;3.578;2022-08-19T02:27:34;17.95;;;12.00;;
59976;SDS011;45837;51.076;3.578;2022-08-19T02:30:01;15.80;;;11.70;;
59976;SDS011;45837;51.076;3.578;2022-08-19T02:32:30;18.23;;;11.70;;
59976;SDS011;45837;51.076;3.578;2022-08-19T02:34:55;19.05;;;11.15;;
59976;SDS011;45837;51.076;3.578;2022-08-19T02:37:21;15.77;;;10.77;;
59976;SDS011;45837;51.076;3.578;2022-08-19T02:40:06;18.08;;;11.07;;
59976;SDS011;45837;51.076;3.578;2022-08-19T02:42:32;21.30;;;11.73;;
59976;SDS011;45837;51.076;3.578;2022-08-19T02:45:05;16.60;;;10.88;;
59976;SDS011;45837;51.076;3.578;2022-08-19T02:47:32;17.95;;;10.80;;
59976;SDS011;45837;51.076;3.578;2022-08-19T02:50:00;17.98;;;11.18;;
59976;SDS011;45837;51.076;3.578;2022-08-19T02:52:26;17.35;;;10.13;;
59976;SDS011;45837;51.076;3.578;2022-08-19T02:54:53;17.98;;;9.38;;
59976;SDS011;45837;51.076;3.578;2022-08-19T02:57:21;19.67;;;9.98;;
59976;SDS011;45837;51.076;3.578;2022-08-19T02:59:47;20.98;;;10.13;;
59976;SDS011;45837;51.076;3.578;2022-08-19T03:02:13;18.05;;;9.80;;
59976;SDS011;45837;51.076;3.578;2022-08-19T03:04:39;18.50;;;9.93;;
59976;SDS011;45837;51.076;3.578;2022-08-19T03:07:08;17.70;;;9.50;;
59976;SDS011;45837;51.076;3.578;2022-08-19T03:09:36;17.70;;;10.25;;
59976;SDS011;45837;51.076;3.578;2022-08-19T03:12:05;19.45;;;9.35;;
59976;SDS011;45837;51.076;3.578;2022-08-19T03:14:35;13.27;;;8.80;;
59976;SDS011;45837;51.076;3.578;2022-08-19T03:17:02;15.15;;;8.68;;
59976;SDS011;45837;51.076;3.578;2022-08-19T03:19:36;17.83;;;9.27;;
59976;SDS011;45837;51.076;3.578;2022-08-19T03:22:03;16.50;;;9.63;;
59976;SDS011;45837;51.076;3.578;2022-08-19T03:24:34;18.42;;;9.35;;
59976;SDS011;45837;51.076;3.578;2022-08-19T03:27:00;16.85;;;9.20;;
59976;SDS011;45837;51.076;3.578;2022-08-19T03:29:33;17.80;;;9.13;;
59976;SDS011;45837;51.076;3.578;2022-08-19T03:32:05;16.95;;;8.65;;
59976;SDS011;45837;51.076;3.578;2022-08-19T03:34:32;17.25;;;8.85;;
59976;SDS011;45837;51.076;3.578;2022-08-19T03:36:59;15.13;;;7.95;;
59976;SDS011;45837;51.076;3.578;2022-08-19T03:39:30;12.02;;;7.90;;
59976;SDS011;45837;51.076;3.578;2022-08-19T03:41:55;15.27;;;8.55;;
59976;SDS011;45837;51.076;3.578;2022-08-19T03:44:27;14.10;;;7.70;;
59976;SDS011;45837;51.076;3.578;2022-08-19T03:46:59;15.45;;;8.10;;
59976;SDS011;45837;51.076;3.578;2022-08-19T03:49:27;12.27;;;7.03;;
59976;SDS011;45837;51.076;3.578;2022-08-19T03:51:54;12.98;;;7.57;;
59976;SDS011;45837;51.076;3.578;2022-08-19T03:54:22;17.83;;;8.88;;
59976;SDS011;45837;51.076;3.578;2022-08-19T03:56:50;13.45;;;7.32;;
59976;SDS011;45837;51.076;3.578;2022-08-19T03:59:21;16.55;;;7.65;;
59976;SDS011;45837;51.076;3.578;2022-08-19T04:02:01;12.37;;;6.97;;
59976;SDS011;45837;51.076;3.578;2022-08-19T04:04:30;12.63;;;7.35;;
59976;SDS011;45837;51.076;3.578;2022-08-19T04:06:56;11.93;;;7.72;;
59976;SDS011;45837;51.076;3.578;2022-08-19T04:09:23;18.05;;;7.40;;
59976;SDS011;45837;51.076;3.578;2022-08-19T04:11:54;10.82;;;6.85;;
59976;SDS011;45837;51.076;3.578;2022-08-19T04:14:24;10.88;;;6.75;;
59976;SDS011;45837;51.076;3.578;2022-08-19T04:16:55;17.08;;;7.10;;
59976;SDS011;45837;51.076;3.578;2022-08-19T04:19:21;14.88;;;7.70;;
59976;SDS011;45837;51.076;3.578;2022-08-19T04:21:49;13.82;;;7.60;;
59976;SDS011;45837;51.076;3.578;2022-08-19T04:24:17;16.77;;;7.55;;
59976;SDS011;45837;51.076;3.578;2022-08-19T04:26:43;15.30;;;6.75;;
59976;SDS011;45837;51.076;3.578;2022-08-19T04:29:11;15.55;;;6.97;;
59976;SDS011;45837;51.076;3.578;2022-08-19T04:31:39;17.38;;;9.70;;
59976;SDS011;45837;51.076;3.578;2022-08-19T04:34:07;17.90;;;9.68;;
59976;SDS011;45837;51.076;3.578;2022-08-19T04:36:36;16.88;;;9.85;;
59976;SDS011;45837;51.076;3.578;2022-08-19T04:39:08;16.35;;;9.93;;
59976;SDS011;45837;51.076;3.578;2022-08-19T04:41:38;19.48;;;10.02;;
59976;SDS011;45837;51.076;3.578;2022-08-19T04:44:22;17.77;;;9.73;;
59976;SDS011;45837;51.076;3.578;2022-08-19T04:46:49;18.83;;;10.00;;
59976;SDS011;45837;51.076;3.578;2022-08-19T04:49:16;17.92;;;9.98;;
59976;SDS011;45837;51.076;3.578;2022-08-19T04:51:45;19.00;;;9.63;;
59976;SDS011;45837;51.076;3.578;2022-08-19T04:54:13;20.30;;;9.98;;
59976;SDS011;45837;51.076;3.578;2022-08-19T04:56:40;16.65;;;9.73;;
59976;SDS011;45837;51.076;3.578;2022-08-19T04:59:06;17.35;;;9.45;;
59976;SDS011;45837;51.076;3.578;2022-08-19T05:01:32;17.50;;;9.48;;
59976;SDS011;45837;51.076;3.578;2022-08-19T05:04:02;20.60;;;9.48;;
59976;SDS011;45837;51.076;3.578;2022-08-19T05:06:29;16.23;;;8.82;;
59976;SDS011;45837;51.076;3.578;2022-08-19T05:08:58;20.95;;;9.85;;
59976;SDS011;45837;51.076;3.578;2022-08-19T05:11:25;17.88;;;9.55;;
59976;SDS011;45837;51.076;3.578;2022-08-19T05:13:55;17.90;;;9.68;;
59976;SDS011;45837;51.076;3.578;2022-08-19T05:16:22;16.83;;;8.63;;
59976;SDS011;45837;51.076;3.578;2022-08-19T05:18:49;16.00;;;8.35;;
59976;SDS011;45837;51.076;3.578;2022-08-19T05:21:34;18.05;;;9.38;;
59976;SDS011;45837;51.076;3.578;2022-08-19T05:24:20;16.08;;;8.70;;
59976;SDS011;45837;51.076;3.578;2022-08-19T05:26:47;20.58;;;9.02;;
59976;SDS011;45837;51.076;3.578;2022-08-19T05:29:15;20.90;;;8.68;;
59976;SDS011;45837;51.076;3.578;2022-08-19T05:31:44;17.92;;;9.15;;
59976;SDS011;45837;51.076;3.578;2022-08-19T05:34:10;13.18;;;8.40;;
59976;SDS011;45837;51.076;3.578;2022-08-19T05:36:37;18.02;;;8.73;;
59976;SDS011;45837;51.076;3.578;2022-08-19T05:39:06;16.85;;;9.38;;
59976;SDS011;45837;51.076;3.578;2022-08-19T05:41:34;21.98;;;8.55;;
59976;SDS011;45837;51.076;3.578;2022-08-19T05:44:03;17.95;;;9.27;;
59976;SDS011;45837;51.076;3.578;2022-08-19T05:46:34;17.50;;;7.38;;
59976;SDS011;45837;51.076;3.578;2022-08-19T05:49:03;15.60;;;7.40;;
59976;SDS011;45837;51.076;3.578;2022-08-19T05:51:32;13.82;;;6.68;;
59976;SDS011;45837;51.076;3.578;2022-08-19T05:54:01;14.68;;;6.63;;
59976;SDS011;45837;51.076;3.578;2022-08-19T05:56:28;15.25;;;7.15;;
59976;SDS011;45837;51.076;3.578;2022-08-19T05:58:56;17.20;;;7.13;;
59976;SDS011;45837;51.076;3.578;2022-08-19T06:01:23;23.42;;;7.68;;
59976;SDS011;45837;51.076;3.578;2022-08-19T06:03:50;15.13;;;7.22;;
59976;SDS011;45837;51.076;3.578;2022-08-19T06:06:16;15.88;;;8.45;;
59976;SDS011;45837;51.076;3.578;2022-08-19T06:08:43;18.27;;;8.07;;
59976;SDS011;45837;51.076;3.578;2022-08-19T06:11:23;14.38;;;7.07;;
59976;SDS011;45837;51.076;3.578;2022-08-19T06:13:59;21.25;;;7.85;;
59976;SDS011;45837;51.076;3.578;2022-08-19T06:16:27;14.82;;;7.70;;
59976;SDS011;45837;51.076;3.578;2022-08-19T06:18:54;19.80;;;7.75;;
59976;SDS011;45837;51.076;3.578;2022-08-19T06:21:23;16.20;;;7.55;;
59976;SDS011;45837;51.076;3.578;2022-08-19T06:23:50;22.80;;;8.68;;
59976;SDS011;45837;51.076;3.578;2022-08-19T06:26:17;26.73;;;8.30;;
59976;SDS011;45837;51.076;3.578;2022-08-19T06:28:45;19.42;;;9.38;;
59976;SDS011;45837;51.076;3.578;2022-08-19T06:31:13;23.67;;;10.38;;
59976;SDS011;45837;51.076;3.578;2022-08-19T06:33:40;29.83;;;10.75;;
59976;SDS011;45837;51.076;3.578;2022-08-19T06:36:06;21.30;;;10.30;;
59976;SDS011;45837;51.076;3.578;2022-08-19T06:38:33;21.20;;;10.18;;
59976;SDS011;45837;51.076;3.578;2022-08-19T06:41:00;27.45;;;10.95;;
59976;SDS011;45837;51.076;3.578;2022-08-19T06:43:27;22.83;;;11.30;;
59976;SDS011;45837;51.076;3.578;2022-08-19T06:45:52;28.92;;;11.63;;
59976;SDS011;45837;51.076;3.578;2022-08-19T06:48:18;21.58;;;10.88;;
59976;SDS011;45837;51.076;3.578;2022-08-19T06:50:44;18.90;;;10.20;;
59976;SDS011;45837;51.076;3.578;2022-08-19T06:53:10;19.02;;;12.00;;
59976;SDS011;45837;51.076;3.578;2022-08-19T06:55:36;24.50;;;10.93;;
59976;SDS011;45837;51.076;3.578;2022-08-19T06:58:03;21.48;;;11.20;;
59976;SDS011;45837;51.076;3.578;2022-08-19T07:00:29;23.15;;;10.27;;
59976;SDS011;45837;51.076;3.578;2022-08-19T07:02:57;28.05;;;11.70;;
59976;SDS011;45837;51.076;3.578;2022-08-19T07:05:23;22.13;;;11.55;;
59976;SDS011;45837;51.076;3.578;2022-08-19T07:07:49;27.08;;;10.52;;
59976;SDS011;45837;51.076;3.578;2022-08-19T07:10:15;23.63;;;10.63;;
59976;SDS011;45837;51.076;3.578;2022-08-19T07:12:41;31.42;;;11.52;;
59976;SDS011;45837;51.076;3.578;2022-08-19T07:15:07;20.65;;;10.52;;
59976;SDS011;45837;51.076;3.578;2022-08-19T07:17:34;18.75;;;10.25;;
59976;SDS011;45837;51.076;3.578;2022-08-19T07:20:02;21.75;;;10.15;;
59976;SDS011;45837;51.076;3.578;2022-08-19T07:22:29;18.10;;;10.70;;
59976;SDS011;45837;51.076;3.578;2022-08-19T07:24:55;15.25;;;9.32;;
59976;SDS011;45837;51.076;3.578;2022-08-19T07:27:21;16.90;;;9.70;;
59976;SDS011;45837;51.076;3.578;2022-08-19T07:29:50;18.30;;;9.63;;
59976;SDS011;45837;51.076;3.578;2022-08-19T07:32:18;15.05;;;9.13;;
59976;SDS011;45837;51.076;3.578;2022-08-19T07:34:44;16.13;;;9.93;;
59976;SDS011;45837;51.076;3.578;2022-08-19T07:37:10;17.95;;;9.07;;
59976;SDS011;45837;51.076;3.578;2022-08-19T07:39:41;19.35;;;9.10;;
59976;SDS011;45837;51.076;3.578;2022-08-19T07:42:07;18.83;;;8.70;;
59976;SDS011;45837;51.076;3.578;2022-08-19T07:44:35;14.27;;;7.93;;
59976;SDS011;45837;51.076;3.578;2022-08-19T07:47:02;11.48;;;7.05;;
59976;SDS011;45837;51.076;3.578;2022-08-19T07:49:29;15.55;;;7.90;;
59976;SDS011;45837;51.076;3.578;2022-08-19T07:51:56;19.60;;;8.43;;
59976;SDS011;45837;51.076;3.578;2022-08-19T07:54:27;15.68;;;7.78;;
59976;SDS011;45837;51.076;3.578;2022-08-19T07:56:55;19.27;;;8.25;;
59976;SDS011;45837;51.076;3.578;2022-08-19T07:59:22;23.02;;;8.35;;
59976;SDS011;45837;51.076;3.578;2022-08-19T08:01:49;13.48;;;6.47;;
59976;SDS011;45837;51.076;3.578;2022-08-19T08:04:16;12.40;;;7.47;;
59976;SDS011;45837;51.076;3.578;2022-08-19T08:07:01;15.27;;;7.00;;
59976;SDS011;45837;51.076;3.578;2022-08-19T08:09:46;18.67;;;6.22;;
59976;SDS011;45837;51.076;3.578;2022-08-19T08:12:14;13.75;;;6.43;;
59976;SDS011;45837;51.076;3.578;2022-08-19T08:14:43;13.65;;;6.90;;
59976;SDS011;45837;51.076;3.578;2022-08-19T08:17:13;11.85;;;6.53;;
59976;SDS011;45837;51.076;3.578;2022-08-19T08:19:43;15.88;;;6.78;;
59976;SDS011;45837;51.076;3.578;2022-08-19T08:22:10;10.43;;;5.97;;
59976;SDS011;45837;51.076;3.578;2022-08-19T08:24:59;16.92;;;7.30;;
59976;SDS011;45837;51.076;3.578;2022-08-19T08:27:28;13.52;;;6.03;;
59976;SDS011;45837;51.076;3.578;2022-08-19T08:29:56;12.07;;;6.28;;
59976;SDS011;45837;51.076;3.578;2022-08-19T08:32:23;14.52;;;6.40;;
59976;SDS011;45837;51.076;3.578;2022-08-19T08:34:48;10.48;;;6.60;;
59976;SDS011;45837;51.076;3.578;2022-08-19T08:37:14;10.80;;;5.53;;
59976;SDS011;45837;51.076;3.578;2022-08-19T08:39:40;10.00;;;6.05;;
59976;SDS011;45837;51.076;3.578;2022-08-19T08:42:13;13.27;;;6.20;;
59976;SDS011;45837;51.076;3.578;2022-08-19T08:45:10;13.43;;;5.60;;
59976;SDS011;45837;51.076;3.578;2022-08-19T08:47:41;15.23;;;6.63;;
59976;SDS011;45837;51.076;3.578;2022-08-19T08:50:25;17.15;;;6.47;;
59976;SDS011;45837;51.076;3.578;2022-08-19T08:52:57;21.05;;;6.05;;
59976;SDS011;45837;51.076;3.578;2022-08-19T08:55:25;12.85;;;5.57;;
59976;SDS011;45837;51.076;3.578;2022-08-19T09:00:43;8.82;;;4.43;;
59976;SDS011;45837;51.076;3.578;2022-08-19T09:03:20;7.70;;;4.10;;
59976;SDS011;45837;51.076;3.578;2022-08-19T09:08:38;9.23;;;3.13;;
59976;SDS011;45837;51.076;3.578;2022-08-19T09:11:19;10.43;;;3.83;;
59976;SDS011;45837;51.076;3.578;2022-08-19T09:14:29;4.45;;;2.88;;
59976;SDS011;45837;51.076;3.578;2022-08-19T09:17:01;7.03;;;3.28;;
59976;SDS011;45837;51.076;3.578;2022-08-19T09:19:33;6.18;;;3.10;;
59976;SDS011;45837;51.076;3.578;2022-08-19T09:22:01;4.65;;;2.72;;
59976;SDS011;45837;51.076;3.578;2022-08-19T09:24:27;9.15;;;2.78;;
59976;SDS011;45837;51.076;3.578;2022-08-19T09:26:52;5.60;;;2.60;;
59976;SDS011;45837;51.076;3.578;2022-08-19T09:29:18;6.05;;;2.58;;
59976;SDS011;45837;51.076;3.578;2022-08-19T09:31:45;5.90;;;2.20;;
59976;SDS011;45837;51.076;3.578;2022-08-19T09:34:11;6.25;;;2.72;;
59976;SDS011;45837;51.076;3.578;2022-08-19T09:36:37;5.50;;;2.30;;
59976;SDS011;45837;51.076;3.578;2022-08-19T09:39:04;5.93;;;2.30;;
59976;SDS011;45837;51.076;3.578;2022-08-19T09:41:31;7.68;;;2.60;;
59976;SDS011;45837;51.076;3.578;2022-08-19T09:43:57;4.47;;;2.03;;
59976;SDS011;45837;51.076;3.578;2022-08-19T09:46:24;4.60;;;2.20;;
59976;SDS011;45837;51.076;3.578;2022-08-19T09:48:51;7.93;;;2.78;;
59976;SDS011;45837;51.076;3.578;2022-08-19T09:51:20;6.30;;;2.72;;
59976;SDS011;45837;51.076;3.578;2022-08-19T09:53:48;12.65;;;2.00;;
59976;SDS011;45837;51.076;3.578;2022-08-19T09:56:15;7.72;;;1.75;;
59976;SDS011;45837;51.076;3.578;2022-08-19T09:58:43;6.10;;;2.30;;
59976;SDS011;45837;51.076;3.578;2022-08-19T10:01:14;7.35;;;2.50;;
59976;SDS011;45837;51.076;3.578;2022-08-19T10:03:47;6.10;;;2.25;;
59976;SDS011;45837;51.076;3.578;2022-08-19T10:06:14;7.28;;;2.40;;
59976;SDS011;45837;51.076;3.578;2022-08-19T10:08:41;7.28;;;2.08;;
59976;SDS011;45837;51.076;3.578;2022-08-19T10:11:09;7.55;;;1.90;;
59976;SDS011;45837;51.076;3.578;2022-08-19T10:13:35;6.35;;;2.10;;
59976;SDS011;45837;51.076;3.578;2022-08-19T10:16:04;10.82;;;2.28;;
59976;SDS011;45837;51.076;3.578;2022-08-19T10:18:32;6.60;;;2.92;;
59976;SDS011;45837;51.076;3.578;2022-08-19T10:21:03;5.45;;;2.50;;
59976;SDS011;45837;51.076;3.578;2022-08-19T10:23:33;5.72;;;2.38;;
59976;SDS011;45837;51.076;3.578;2022-08-19T10:26:01;3.88;;;2.25;;
59976;SDS011;45837;51.076;3.578;2022-08-19T10:28:29;6.93;;;1.92;;
59976;SDS011;45837;51.076;3.578;2022-08-19T10:30:58;11.48;;;2.28;;
59976;SDS011;45837;51.076;3.578;2022-08-19T10:33:27;5.65;;;2.38;;
59976;SDS011;45837;51.076;3.578;2022-08-19T10:36:10;4.72;;;2.03;;
59976;SDS011;45837;51.076;3.578;2022-08-19T10:38:43;6.22;;;1.95;;
59976;SDS011;45837;51.076;3.578;2022-08-19T10:41:20;4.25;;;1.98;;
59976;SDS011;45837;51.076;3.578;2022-08-19T10:43:51;4.45;;;1.38;;
59976;SDS011;45837;51.076;3.578;2022-08-19T10:46:23;3.92;;;1.52;;
59976;SDS011;45837;51.076;3.578;2022-08-19T10:48:50;4.32;;;1.35;;
59976;SDS011;45837;51.076;3.578;2022-08-19T10:51:19;4.35;;;1.70;;
59976;SDS011;45837;51.076;3.578;2022-08-19T10:54:04;5.05;;;1.20;;
59976;SDS011;45837;51.076;3.578;2022-08-19T10:56:38;3.72;;;1.30;;
59976;SDS011;45837;51.076;3.578;2022-08-19T10:59:23;3.70;;;1.10;;
59976;SDS011;45837;51.076;3.578;2022-08-19T11:02:00;6.38;;;1.17;;
59976;SDS011;45837;51.076;3.578;2022-08-19T11:04:26;7.18;;;1.70;;
59976;SDS011;45837;51.076;3.578;2022-08-19T11:06:52;5.35;;;1.80;;
59976;SDS011;45837;51.076;3.578;2022-08-19T11:09:22;19.15;;;2.47;;
59976;SDS011;45837;51.076;3.578;2022-08-19T11:11:50;7.90;;;1.65;;
59976;SDS011;45837;51.076;3.578;2022-08-19T11:14:18;7.85;;;2.30;;
59976;SDS011;45837;51.076;3.578;2022-08-19T11:16:45;11.57;;;1.90;;
59976;SDS011;45837;51.076;3.578;2022-08-19T11:19:12;11.50;;;2.03;;
59976;SDS011;45837;51.076;3.578;2022-08-19T11:21:42;7.40;;;1.70;;
59976;SDS011;45837;51.076;3.578;2022-08-19T11:24:17;3.88;;;1.63;;
59976;SDS011;45837;51.076;3.578;2022-08-19T11:26:45;6.43;;;1.88;;
59976;SDS011;45837;51.076;3.578;2022-08-19T11:29:14;6.47;;;1.65;;
59976;SDS011;45837;51.076;3.578;2022-08-19T11:31:42;5.82;;;1.85;;
59976;SDS011;45837;51.076;3.578;2022-08-19T11:34:12;3.45;;;1.63;;
59976;SDS011;45837;51.076;3.578;2022-08-19T11:36:41;7.13;;;1.90;;
59976;SDS011;45837;51.076;3.578;2022-08-19T11:39:10;4.95;;;2.10;;
59976;SDS011;45837;51.076;3.578;2022-08-19T11:41:38;5.55;;;1.92;;
59976;SDS011;45837;51.076;3.578;2022-08-19T11:44:04;3.05;;;1.63;;
59976;SDS011;45837;51.076;3.578;2022-08-19T11:46:32;7.32;;;1.90;;
59976;SDS011;45837;51.076;3.578;2022-08-19T11:49:00;4.22;;;1.55;;
59976;SDS011;45837;51.076;3.578;2022-08-19T11:51:28;8.07;;;1.70;;
59976;SDS011;45837;51.076;3.578;2022-08-19T11:53:55;6.10;;;1.55;;
59976;SDS011;45837;51.076;3.578;2022-08-19T11:56:24;7.72;;;2.00;;
59976;SDS011;45837;51.076;3.578;2022-08-19T11:58:52;4.38;;;1.73;;
59976;SDS011;45837;51.076;3.578;2022-08-19T12:01:25;4.93;;;1.77;;
59976;SDS011;45837;51.076;3.578;2022-08-19T12:03:52;6.18;;;1.60;;
59976;SDS011;45837;51.076;3.578;2022-08-19T12:06:23;8.00;;;1.70;;
59976;SDS011;45837;51.076;3.578;2022-08-19T12:08:57;6.30;;;1.60;;
59976;SDS011;45837;51.076;3.578;2022-08-19T12:11:24;7.18;;;1.75;;
59976;SDS011;45837;51.076;3.578;2022-08-19T12:13:51;16.55;;;1.88;;
59976;SDS011;45837;51.076;3.578;2022-08-19T12:16:19;12.32;;;1.80;;
59976;SDS011;45837;51.076;3.578;2022-08-19T12:18:48;4.18;;;1.55;;
59976;SDS011;45837;51.076;3.578;2022-08-19T12:21:16;9.95;;;1.88;;
59976;SDS011;45837;51.076;3.578;2022-08-19T12:23:46;7.90;;;3.15;;
59976;SDS011;45837;51.076;3.578;2022-08-19T12:26:13;5.93;;;1.77;;
59976;SDS011;45837;51.076;3.578;2022-08-19T12:28:39;7.78;;;1.73;;
59976;SDS011;45837;51.076;3.578;2022-08-19T12:31:05;6.15;;;2.53;;
59976;SDS011;45837;51.076;3.578;2022-08-19T12:33:32;11.50;;;5.78;;
59976;SDS011;45837;51.076;3.578;2022-08-19T12:36:02;11.55;;;2.40;;
59976;SDS011;45837;51.076;3.578;2022-08-19T12:38:30;25.55;;;2.80;;
59976;SDS011;45837;51.076;3.578;2022-08-19T12:40:57;24.85;;;2.95;;
59976;SDS011;45837;51.076;3.578;2022-08-19T12:43:23;13.13;;;3.15;;
59976;SDS011;45837;51.076;3.578;2022-08-19T12:45:49;19.85;;;3.20;;
59976;SDS011;45837;51.076;3.578;2022-08-19T12:48:16;17.02;;;3.85;;
59976;SDS011;45837;51.076;3.578;2022-08-19T12:50:42;18.27;;;3.80;;
59976;SDS011;45837;51.076;3.578;2022-08-19T12:53:13;33.92;;;4.18;;
59976;SDS011;45837;51.076;3.578;2022-08-19T12:55:40;24.45;;;3.85;;
59976;SDS011;45837;51.076;3.578;2022-08-19T12:58:07;8.63;;;2.65;;
59976;SDS011;45837;51.076;3.578;2022-08-19T13:00:34;18.55;;;2.72;;
59976;SDS011;45837;51.076;3.578;2022-08-19T13:03:00;19.95;;;2.60;;
59976;SDS011;45837;51.076;3.578;2022-08-19T13:05:27;14.60;;;2.58;;
59976;SDS011;45837;51.076;3.578;2022-08-19T13:07:55;8.57;;;2.45;;
59976;SDS011;45837;51.076;3.578;2022-08-19T13:10:25;13.27;;;3.15;;
59976;SDS011;45837;51.076;3.578;2022-08-19T13:12:53;9.23;;;2.42;;
59976;SDS011;45837;51.076;3.578;2022-08-19T13:15:20;12.10;;;3.03;;
59976;SDS011;45837;51.076;3.578;2022-08-19T13:17:48;5.97;;;2.00;;
59976;SDS011;45837;51.076;3.578;2022-08-19T13:20:18;5.90;;;2.25;;
59976;SDS011;45837;51.076;3.578;2022-08-19T13:22:48;13.55;;;2.35;;
59976;SDS011;45837;51.076;3.578;2022-08-19T13:25:14;7.88;;;2.70;;
59976;SDS011;45837;51.076;3.578;2022-08-19T13:27:42;6.90;;;1.80;;
59976;SDS011;45837;51.076;3.578;2022-08-19T13:30:09;7.70;;;1.60;;
59976;SDS011;45837;51.076;3.578;2022-08-19T13:32:55;18.13;;;2.58;;
59976;SDS011;45837;51.076;3.578;2022-08-19T13:35:37;28.10;;;2.53;;
59976;SDS011;45837;51.076;3.578;2022-08-19T13:38:18;13.90;;;1.85;;
59976;SDS011;45837;51.076;3.578;2022-08-19T13:40:46;21.83;;;2.20;;
59976;SDS011;45837;51.076;3.578;2022-08-19T13:43:12;18.40;;;2.60;;
59976;SDS011;45837;51.076;3.578;2022-08-19T13:45:39;10.70;;;1.85;;
59976;SDS011;45837;51.076;3.578;2022-08-19T13:48:05;9.88;;;2.00;;
59976;SDS011;45837;51.076;3.578;2022-08-19T13:50:34;12.05;;;2.05;;
59976;SDS011;45837;51.076;3.578;2022-08-19T13:53:06;11.73;;;2.10;;
59976;SDS011;45837;51.076;3.578;2022-08-19T13:55:33;12.57;;;2.30;;
59976;SDS011;45837;51.076;3.578;2022-08-19T13:58:01;13.57;;;2.35;;
59976;SDS011;45837;51.076;3.578;2022-08-19T14:00:28;7.85;;;3.70;;
59976;SDS011;45837;51.076;3.578;2022-08-19T14:02:57;9.48;;;3.13;;
59976;SDS011;45837;51.076;3.578;2022-08-19T14:05:23;8.93;;;3.75;;
59976;SDS011;45837;51.076;3.578;2022-08-19T14:07:51;9.82;;;4.50;;
59976;SDS011;45837;51.076;3.578;2022-08-19T14:10:17;11.18;;;4.75;;
59976;SDS011;45837;51.076;3.578;2022-08-19T14:12:44;10.05;;;4.85;;
59976;SDS011;45837;51.076;3.578;2022-08-19T14:15:10;12.15;;;4.57;;
59976;SDS011;45837;51.076;3.578;2022-08-19T14:17:41;9.93;;;5.25;;
59976;SDS011;45837;51.076;3.578;2022-08-19T14:20:09;7.35;;;4.85;;
59976;SDS011;45837;51.076;3.578;2022-08-19T14:22:37;8.95;;;5.35;;
59976;SDS011;45837;51.076;3.578;2022-08-19T14:25:05;11.38;;;5.38;;
59976;SDS011;45837;51.076;3.578;2022-08-19T14:27:38;8.80;;;5.60;;
59976;SDS011;45837;51.076;3.578;2022-08-19T14:30:05;16.30;;;5.35;;
59976;SDS011;45837;51.076;3.578;2022-08-19T14:32:34;12.20;;;5.70;;
59976;SDS011;45837;51.076;3.578;2022-08-19T14:35:00;11.38;;;5.15;;
59976;SDS011;45837;51.076;3.578;2022-08-19T14:37:29;10.98;;;5.22;;
59976;SDS011;45837;51.076;3.578;2022-08-19T14:39:55;9.98;;;4.97;;
59976;SDS011;45837;51.076;3.578;2022-08-19T14:42:21;9.73;;;5.40;;
59976;SDS011;45837;51.076;3.578;2022-08-19T14:44:46;13.35;;;5.25;;
59976;SDS011;45837;51.076;3.578;2022-08-19T14:47:12;8.55;;;4.93;;
59976;SDS011;45837;51.076;3.578;2022-08-19T14:49:39;9.50;;;4.68;;